sensor_id;sensor_type;location;lat;lon;timestamp;temperature;humidity
18932;DHT22;9598;50.954;3.112;2023-03-16T00:02:51;9.10;99.90
18932;DHT22;9598;50.954;3.112;2023-03-16T00:07:53;9.00;99.90
18932;DHT22;9598;50.954;3.112;2023-03-16T00:12:56;9.00;99.90
18932;DHT22;9598;50.954;3.112;2023-03-16T00:17:58;9.00;99.90
18932;DHT22;9598;50.954;3.112;2023-03-16T00:23:01;9.00;99.90
18932;DHT22;9598;50.954;3.112;2023-03-16T00:28:05;9.00;99.90
18932;DHT22;9598;50.954;3.112;2023-03-16T00:33:07;8.90;99.90
18932;DHT22;9598;50.954;3.112;2023-03-16T00:38:10;8.90;99.90
18932;DHT22;9598;50.954;3.112;2023-03-16T00:43:14;8.90;99.90
18932;DHT22;9598;50.954;3.112;2023-03-16T00:48:18;8.90;99.90
18932;DHT22;9598;50.954;3.112;2023-03-16T00:53:24;8.80;99.90
18932;DHT22;9598;50.954;3.112;2023-03-16T00:58:27;8.80;99.90
18932;DHT22;9598;50.954;3.112;2023-03-16T01:03:29;8.80;99.90
18932;DHT22;9598;50.954;3.112;2023-03-16T01:08:32;8.80;99.90
18932;DHT22;9598;50.954;3.112;2023-03-16T01:13:37;8.80;99.90
18932;DHT22;9598;50.954;3.112;2023-03-16T01:18:39;8.80;99.90
18932;DHT22;9598;50.954;3.112;2023-03-16T01:23:41;8.70;99.90
18932;DHT22;9598;50.954;3.112;2023-03-16T01:28:45;8.70;99.90
18932;DHT22;9598;50.954;3.112;2023-03-16T01:33:47;8.70;99.90
18932;DHT22;9598;50.954;3.112;2023-03-16T01:38:54;8.70;99.90
18932;DHT22;9598;50.954;3.112;2023-03-16T01:44:01;8.60;99.90
18932;DHT22;9598;50.954;3.112;2023-03-16T01:49:07;8.60;99.90
18932;DHT22;9598;50.954;3.112;2023-03-16T01:54:21;8.60;99.90
18932;DHT22;9598;50.954;3.112;2023-03-16T01:59:29;8.60;99.90
18932;DHT22;9598;50.954;3.112;2023-03-16T02:04:39;8.50;99.90
18932;DHT22;9598;50.954;3.112;2023-03-16T02:09:45;8.50;99.90
18932;DHT22;9598;50.954;3.112;2023-03-16T02:14:51;8.50;99.90
18932;DHT22;9598;50.954;3.112;2023-03-16T02:20:03;8.50;99.90
18932;DHT22;9598;50.954;3.112;2023-03-16T02:25:12;8.40;99.90
18932;DHT22;9598;50.954;3.112;2023-03-16T02:30:17;8.50;99.90
18932;DHT22;9598;50.954;3.112;2023-03-16T02:35:33;8.50;99.90
18932;DHT22;9598;50.954;3.112;2023-03-16T02:40:36;8.40;99.90
18932;DHT22;9598;50.954;3.112;2023-03-16T02:45:46;8.40;99.90
18932;DHT22;9598;50.954;3.112;2023-03-16T02:50:51;8.40;99.90
18932;DHT22;9598;50.954;3.112;2023-03-16T02:55:54;8.40;99.90
18932;DHT22;9598;50.954;3.112;2023-03-16T03:00:58;8.40;99.90
18932;DHT22;9598;50.954;3.112;2023-03-16T03:06:01;8.40;99.90
18932;DHT22;9598;50.954;3.112;2023-03-16T03:11:09;8.30;99.90
18932;DHT22;9598;50.954;3.112;2023-03-16T03:16:12;8.30;99.90
18932;DHT22;9598;50.954;3.112;2023-03-16T03:21:14;8.30;99.90
18932;DHT22;9598;50.954;3.112;2023-03-16T03:26:17;8.30;99.90
18932;DHT22;9598;50.954;3.112;2023-03-16T03:31:23;8.30;99.90
18932;DHT22;9598;50.954;3.112;2023-03-16T03:36:25;8.30;99.90
18932;DHT22;9598;50.954;3.112;2023-03-16T03:41:27;8.20;99.90
18932;DHT22;9598;50.954;3.112;2023-03-16T03:46:31;8.20;99.90
18932;DHT22;9598;50.954;3.112;2023-03-16T03:51:34;8.20;99.90
18932;DHT22;9598;50.954;3.112;2023-03-16T03:56:48;8.30;99.90
18932;DHT22;9598;50.954;3.112;2023-03-16T04:01:52;8.30;99.90
18932;DHT22;9598;50.954;3.112;2023-03-16T04:06:56;8.30;99.90
18932;DHT22;9598;50.954;3.112;2023-03-16T04:11:58;8.30;99.90
18932;DHT22;9598;50.954;3.112;2023-03-16T04:17:03;8.30;99.90
18932;DHT22;9598;50.954;3.112;2023-03-16T04:22:06;8.30;99.90
18932;DHT22;9598;50.954;3.112;2023-03-16T04:27:09;8.30;99.90
18932;DHT22;9598;50.954;3.112;2023-03-16T04:32:13;8.20;99.90
18932;DHT22;9598;50.954;3.112;2023-03-16T04:37:17;8.20;99.90
18932;DHT22;9598;50.954;3.112;2023-03-16T04:42:19;8.30;99.90
18932;DHT22;9598;50.954;3.112;2023-03-16T04:47:23;8.30;99.90
18932;DHT22;9598;50.954;3.112;2023-03-16T04:52:26;8.30;99.90
18932;DHT22;9598;50.954;3.112;2023-03-16T04:57:28;8.30;99.90
18932;DHT22;9598;50.954;3.112;2023-03-16T05:02:32;8.30;99.90
18932;DHT22;9598;50.954;3.112;2023-03-16T05:07:36;8.30;99.90
18932;DHT22;9598;50.954;3.112;2023-03-16T05:12:39;8.30;99.90
18932;DHT22;9598;50.954;3.112;2023-03-16T05:17:43;8.30;99.90
18932;DHT22;9598;50.954;3.112;2023-03-16T05:22:47;8.30;99.90
18932;DHT22;9598;50.954;3.112;2023-03-16T05:28:02;8.30;99.90
18932;DHT22;9598;50.954;3.112;2023-03-16T05:33:13;8.30;99.90
18932;DHT22;9598;50.954;3.112;2023-03-16T05:38:17;8.30;99.90
18932;DHT22;9598;50.954;3.112;2023-03-16T05:43:19;8.20;99.90
18932;DHT22;9598;50.954;3.112;2023-03-16T05:48:26;8.20;99.90
18932;DHT22;9598;50.954;3.112;2023-03-16T05:53:31;8.30;99.90
18932;DHT22;9598;50.954;3.112;2023-03-16T05:58:47;8.30;99.90
18932;DHT22;9598;50.954;3.112;2023-03-16T06:03:51;8.20;99.90
18932;DHT22;9598;50.954;3.112;2023-03-16T06:08:58;8.30;99.90
18932;DHT22;9598;50.954;3.112;2023-03-16T06:14:02;8.30;99.90
18932;DHT22;9598;50.954;3.112;2023-03-16T06:19:06;8.30;99.90
18932;DHT22;9598;50.954;3.112;2023-03-16T06:24:09;8.40;99.90
18932;DHT22;9598;50.954;3.112;2023-03-16T06:29:11;8.40;99.90
18932;DHT22;9598;50.954;3.112;2023-03-16T06:34:16;8.40;99.90
18932;DHT22;9598;50.954;3.112;2023-03-16T06:39:18;8.40;99.90
18932;DHT22;9598;50.954;3.112;2023-03-16T06:44:24;8.40;99.90
18932;DHT22;9598;50.954;3.112;2023-03-16T06:49:35;8.50;99.90
18932;DHT22;9598;50.954;3.112;2023-03-16T06:54:42;8.50;99.90
18932;DHT22;9598;50.954;3.112;2023-03-16T06:59:45;8.50;99.90
18932;DHT22;9598;50.954;3.112;2023-03-16T07:04:49;8.60;99.90
18932;DHT22;9598;50.954;3.112;2023-03-16T07:09:52;8.60;99.90
18932;DHT22;9598;50.954;3.112;2023-03-16T07:14:54;8.60;99.90
18932;DHT22;9598;50.954;3.112;2023-03-16T07:20:00;8.60;99.90
18932;DHT22;9598;50.954;3.112;2023-03-16T07:25:06;8.70;99.90
18932;DHT22;9598;50.954;3.112;2023-03-16T07:30:10;8.70;99.90
18932;DHT22;9598;50.954;3.112;2023-03-16T07:35:16;8.70;99.90
18932;DHT22;9598;50.954;3.112;2023-03-16T07:40:19;8.70;99.90
18932;DHT22;9598;50.954;3.112;2023-03-16T07:45:22;8.80;99.90
18932;DHT22;9598;50.954;3.112;2023-03-16T07:50:26;8.80;99.90
18932;DHT22;9598;50.954;3.112;2023-03-16T07:55:28;8.90;99.90
18932;DHT22;9598;50.954;3.112;2023-03-16T08:00:33;8.90;99.90
18932;DHT22;9598;50.954;3.112;2023-03-16T08:05:36;8.90;99.90
18932;DHT22;9598;50.954;3.112;2023-03-16T08:10:46;9.00;99.90
18932;DHT22;9598;50.954;3.112;2023-03-16T08:15:52;9.00;99.90
18932;DHT22;9598;50.954;3.112;2023-03-16T08:21:06;9.00;99.90
18932;DHT22;9598;50.954;3.112;2023-03-16T08:26:08;9.00;99.90
18932;DHT22;9598;50.954;3.112;2023-03-16T08:31:13;9.00;99.90
18932;DHT22;9598;50.954;3.112;2023-03-16T08:36:20;9.10;99.90
18932;DHT22;9598;50.954;3.112;2023-03-16T08:41:25;9.10;99.90
18932;DHT22;9598;50.954;3.112;2023-03-16T08:46:33;9.10;99.90
18932;DHT22;9598;50.954;3.112;2023-03-16T08:51:37;9.10;99.90
18932;DHT22;9598;50.954;3.112;2023-03-16T08:56:39;9.20;99.90
18932;DHT22;9598;50.954;3.112;2023-03-16T09:01:41;9.30;99.90
18932;DHT22;9598;50.954;3.112;2023-03-16T09:06:44;9.30;99.90
18932;DHT22;9598;50.954;3.112;2023-03-16T09:11:47;9.40;99.90
18932;DHT22;9598;50.954;3.112;2023-03-16T09:16:50;9.50;99.90
18932;DHT22;9598;50.954;3.112;2023-03-16T09:21:54;9.70;99.90
18932;DHT22;9598;50.954;3.112;2023-03-16T09:26:56;9.90;99.90
18932;DHT22;9598;50.954;3.112;2023-03-16T09:31:58;10.00;99.90
18932;DHT22;9598;50.954;3.112;2023-03-16T09:37:02;10.20;99.90
18932;DHT22;9598;50.954;3.112;2023-03-16T09:42:11;10.30;99.90
18932;DHT22;9598;50.954;3.112;2023-03-16T09:47:24;10.40;99.90
18932;DHT22;9598;50.954;3.112;2023-03-16T09:52:34;10.70;99.90
18932;DHT22;9598;50.954;3.112;2023-03-16T09:57:41;10.90;99.90
18932;DHT22;9598;50.954;3.112;2023-03-16T10:03:00;11.00;99.90
18932;DHT22;9598;50.954;3.112;2023-03-16T10:08:13;11.10;99.90
18932;DHT22;9598;50.954;3.112;2023-03-16T10:13:21;11.30;99.90
18932;DHT22;9598;50.954;3.112;2023-03-16T10:18:29;11.50;99.90
18932;DHT22;9598;50.954;3.112;2023-03-16T10:23:35;11.70;99.90
18932;DHT22;9598;50.954;3.112;2023-03-16T10:28:37;11.80;99.90
18932;DHT22;9598;50.954;3.112;2023-03-16T10:33:40;11.90;99.90
18932;DHT22;9598;50.954;3.112;2023-03-16T10:38:46;12.00;99.90
18932;DHT22;9598;50.954;3.112;2023-03-16T10:43:50;12.10;99.90
18932;DHT22;9598;50.954;3.112;2023-03-16T10:48:54;12.20;99.90
18932;DHT22;9598;50.954;3.112;2023-03-16T10:54:06;12.20;99.90
18932;DHT22;9598;50.954;3.112;2023-03-16T10:59:15;12.30;99.90
18932;DHT22;9598;50.954;3.112;2023-03-16T11:04:18;12.60;99.90
18932;DHT22;9598;50.954;3.112;2023-03-16T11:09:24;12.90;99.90
18932;DHT22;9598;50.954;3.112;2023-03-16T11:14:27;13.10;99.90
18932;DHT22;9598;50.954;3.112;2023-03-16T11:19:31;13.20;99.90
18932;DHT22;9598;50.954;3.112;2023-03-16T11:24:44;13.40;99.90
18932;DHT22;9598;50.954;3.112;2023-03-16T11:29:58;13.60;99.90
18932;DHT22;9598;50.954;3.112;2023-03-16T11:35:11;13.70;99.90
18932;DHT22;9598;50.954;3.112;2023-03-16T11:40:25;13.90;99.90
18932;DHT22;9598;50.954;3.112;2023-03-16T11:45:37;14.00;99.90
18932;DHT22;9598;50.954;3.112;2023-03-16T11:50:52;13.90;99.90
18932;DHT22;9598;50.954;3.112;2023-03-16T11:56:05;14.00;99.90
18932;DHT22;9598;50.954;3.112;2023-03-16T12:01:14;14.10;99.90
18932;DHT22;9598;50.954;3.112;2023-03-16T12:06:27;14.30;99.90
18932;DHT22;9598;50.954;3.112;2023-03-16T12:11:38;14.40;99.90
18932;DHT22;9598;50.954;3.112;2023-03-16T12:16:46;14.60;99.90
18932;DHT22;9598;50.954;3.112;2023-03-16T12:22:01;14.60;99.90
18932;DHT22;9598;50.954;3.112;2023-03-16T12:27:11;14.80;99.90
18932;DHT22;9598;50.954;3.112;2023-03-16T12:32:20;14.90;99.90
18932;DHT22;9598;50.954;3.112;2023-03-16T12:37:32;14.90;99.90
18932;DHT22;9598;50.954;3.112;2023-03-16T12:42:52;15.00;99.90
18932;DHT22;9598;50.954;3.112;2023-03-16T12:48:02;15.00;99.90
18932;DHT22;9598;50.954;3.112;2023-03-16T12:53:24;15.00;99.90
18932;DHT22;9598;50.954;3.112;2023-03-16T12:58:28;15.10;99.90
18932;DHT22;9598;50.954;3.112;2023-03-16T13:03:32;15.20;99.90
18932;DHT22;9598;50.954;3.112;2023-03-16T13:08:41;15.30;99.90
18932;DHT22;9598;50.954;3.112;2023-03-16T13:13:52;15.30;99.90
18932;DHT22;9598;50.954;3.112;2023-03-16T13:19:23;15.50;99.90
18932;DHT22;9598;50.954;3.112;2023-03-16T13:24:35;15.50;99.90
18932;DHT22;9598;50.954;3.112;2023-03-16T13:29:39;15.50;99.90
18932;DHT22;9598;50.954;3.112;2023-03-16T13:34:46;15.60;99.90
18932;DHT22;9598;50.954;3.112;2023-03-16T13:39:53;15.70;99.90
18932;DHT22;9598;50.954;3.112;2023-03-16T13:45:00;15.70;99.90
18932;DHT22;9598;50.954;3.112;2023-03-16T13:50:04;15.80;99.90
18932;DHT22;9598;50.954;3.112;2023-03-16T13:55:15;15.80;99.90
18932;DHT22;9598;50.954;3.112;2023-03-16T14:00:22;15.80;99.90
18932;DHT22;9598;50.954;3.112;2023-03-16T14:05:27;15.80;99.90
18932;DHT22;9598;50.954;3.112;2023-03-16T14:10:32;15.80;99.90
18932;DHT22;9598;50.954;3.112;2023-03-16T14:15:36;15.70;99.90
18932;DHT22;9598;50.954;3.112;2023-03-16T14:20:39;15.70;99.90
18932;DHT22;9598;50.954;3.112;2023-03-16T14:25:41;15.60;99.90
18932;DHT22;9598;50.954;3.112;2023-03-16T14:30:52;15.60;99.90
18932;DHT22;9598;50.954;3.112;2023-03-16T14:35:56;15.40;99.90
18932;DHT22;9598;50.954;3.112;2023-03-16T14:41:02;15.30;99.90
18932;DHT22;9598;50.954;3.112;2023-03-16T14:46:10;15.40;99.90
18932;DHT22;9598;50.954;3.112;2023-03-16T14:51:14;15.40;99.90
18932;DHT22;9598;50.954;3.112;2023-03-16T14:56:16;15.40;99.90
18932;DHT22;9598;50.954;3.112;2023-03-16T15:01:20;15.40;99.90
18932;DHT22;9598;50.954;3.112;2023-03-16T15:06:22;15.40;99.90
18932;DHT22;9598;50.954;3.112;2023-03-16T15:11:27;15.30;99.90
18932;DHT22;9598;50.954;3.112;2023-03-16T15:16:32;15.20;99.90
18932;DHT22;9598;50.954;3.112;2023-03-16T15:21:34;15.10;99.90
18932;DHT22;9598;50.954;3.112;2023-03-16T15:26:37;15.00;99.90
18932;DHT22;9598;50.954;3.112;2023-03-16T15:31:40;14.90;99.90
18932;DHT22;9598;50.954;3.112;2023-03-16T15:36:42;14.90;99.90
18932;DHT22;9598;50.954;3.112;2023-03-16T15:41:45;14.90;99.90
18932;DHT22;9598;50.954;3.112;2023-03-16T15:46:48;14.90;99.90
18932;DHT22;9598;50.954;3.112;2023-03-16T15:51:51;14.80;99.90
18932;DHT22;9598;50.954;3.112;2023-03-16T15:56:53;14.90;99.90
18932;DHT22;9598;50.954;3.112;2023-03-16T16:01:57;14.80;99.90
18932;DHT22;9598;50.954;3.112;2023-03-16T16:06:59;14.80;99.90
18932;DHT22;9598;50.954;3.112;2023-03-16T16:12:03;14.70;99.90
18932;DHT22;9598;50.954;3.112;2023-03-16T16:17:11;14.80;99.90
18932;DHT22;9598;50.954;3.112;2023-03-16T16:22:15;14.70;99.90
18932;DHT22;9598;50.954;3.112;2023-03-16T16:27:17;14.70;99.90
18932;DHT22;9598;50.954;3.112;2023-03-16T16:32:22;14.70;99.90
18932;DHT22;9598;50.954;3.112;2023-03-16T16:37:25;14.60;99.90
18932;DHT22;9598;50.954;3.112;2023-03-16T16:42:27;14.60;99.90
18932;DHT22;9598;50.954;3.112;2023-03-16T16:47:31;14.50;99.90
18932;DHT22;9598;50.954;3.112;2023-03-16T16:52:33;14.50;99.90
18932;DHT22;9598;50.954;3.112;2023-03-16T16:57:36;14.50;99.90
18932;DHT22;9598;50.954;3.112;2023-03-16T17:02:43;14.40;99.90
18932;DHT22;9598;50.954;3.112;2023-03-16T17:07:46;14.30;99.90
18932;DHT22;9598;50.954;3.112;2023-03-16T17:12:49;14.30;99.90
18932;DHT22;9598;50.954;3.112;2023-03-16T17:17:58;14.20;99.90
18932;DHT22;9598;50.954;3.112;2023-03-16T17:23:25;14.10;99.90
18932;DHT22;9598;50.954;3.112;2023-03-16T17:28:30;14.10;99.90
18932;DHT22;9598;50.954;3.112;2023-03-16T17:33:36;14.10;99.90
18932;DHT22;9598;50.954;3.112;2023-03-16T17:38:38;14.00;99.90
18932;DHT22;9598;50.954;3.112;2023-03-16T17:43:40;14.00;99.90
18932;DHT22;9598;50.954;3.112;2023-03-16T17:48:44;13.90;99.90
18932;DHT22;9598;50.954;3.112;2023-03-16T17:53:47;13.80;99.90
18932;DHT22;9598;50.954;3.112;2023-03-16T17:58:52;13.80;99.90
18932;DHT22;9598;50.954;3.112;2023-03-16T18:03:58;13.70;99.90
18932;DHT22;9598;50.954;3.112;2023-03-16T18:09:00;13.60;99.90
18932;DHT22;9598;50.954;3.112;2023-03-16T18:14:05;13.60;99.90
18932;DHT22;9598;50.954;3.112;2023-03-16T18:19:20;13.50;99.90
18932;DHT22;9598;50.954;3.112;2023-03-16T18:24:23;13.40;99.90
18932;DHT22;9598;50.954;3.112;2023-03-16T18:29:27;13.40;99.90
18932;DHT22;9598;50.954;3.112;2023-03-16T18:34:32;13.30;99.90
18932;DHT22;9598;50.954;3.112;2023-03-16T18:39:35;13.30;99.90
18932;DHT22;9598;50.954;3.112;2023-03-16T18:44:37;13.30;99.90
18932;DHT22;9598;50.954;3.112;2023-03-16T18:49:41;13.30;99.90
18932;DHT22;9598;50.954;3.112;2023-03-16T18:54:47;13.20;99.90
18932;DHT22;9598;50.954;3.112;2023-03-16T18:59:49;13.20;99.90
18932;DHT22;9598;50.954;3.112;2023-03-16T19:04:54;13.10;99.90
18932;DHT22;9598;50.954;3.112;2023-03-16T19:09:57;13.00;99.90
18932;DHT22;9598;50.954;3.112;2023-03-16T19:15:00;13.10;99.90
18932;DHT22;9598;50.954;3.112;2023-03-16T19:20:04;13.10;99.90
18932;DHT22;9598;50.954;3.112;2023-03-16T19:25:17;13.00;99.90
18932;DHT22;9598;50.954;3.112;2023-03-16T19:30:23;13.00;99.90
18932;DHT22;9598;50.954;3.112;2023-03-16T19:35:28;13.00;99.90
18932;DHT22;9598;50.954;3.112;2023-03-16T19:40:31;13.00;99.90
18932;DHT22;9598;50.954;3.112;2023-03-16T19:45:33;13.00;99.90
18932;DHT22;9598;50.954;3.112;2023-03-16T19:50:36;13.00;99.90
18932;DHT22;9598;50.954;3.112;2023-03-16T19:55:38;12.90;99.90
18932;DHT22;9598;50.954;3.112;2023-03-16T20:00:40;12.90;99.90
18932;DHT22;9598;50.954;3.112;2023-03-16T20:05:44;12.90;99.90
18932;DHT22;9598;50.954;3.112;2023-03-16T20:10:47;12.90;99.90
18932;DHT22;9598;50.954;3.112;2023-03-16T20:15:49;12.90;99.90
18932;DHT22;9598;50.954;3.112;2023-03-16T20:20:53;12.80;99.90
18932;DHT22;9598;50.954;3.112;2023-03-16T20:25:57;12.80;99.90
18932;DHT22;9598;50.954;3.112;2023-03-16T20:30:59;12.80;99.90
18932;DHT22;9598;50.954;3.112;2023-03-16T20:36:04;12.80;99.90
18932;DHT22;9598;50.954;3.112;2023-03-16T20:41:21;12.80;99.90
18932;DHT22;9598;50.954;3.112;2023-03-16T20:46:26;12.80;99.90
18932;DHT22;9598;50.954;3.112;2023-03-16T20:51:30;12.80;99.90
18932;DHT22;9598;50.954;3.112;2023-03-16T20:56:32;12.80;99.90
18932;DHT22;9598;50.954;3.112;2023-03-16T21:01:34;12.80;99.90
18932;DHT22;9598;50.954;3.112;2023-03-16T21:06:39;12.80;99.90
18932;DHT22;9598;50.954;3.112;2023-03-16T21:11:44;12.70;99.90
18932;DHT22;9598;50.954;3.112;2023-03-16T21:16:47;12.70;99.90
18932;DHT22;9598;50.954;3.112;2023-03-16T21:21:51;12.80;99.90
18932;DHT22;9598;50.954;3.112;2023-03-16T21:26:53;12.70;99.90
18932;DHT22;9598;50.954;3.112;2023-03-16T21:31:55;12.70;99.90
18932;DHT22;9598;50.954;3.112;2023-03-16T21:36:59;12.70;99.90
18932;DHT22;9598;50.954;3.112;2023-03-16T21:42:02;12.70;99.90
18932;DHT22;9598;50.954;3.112;2023-03-16T21:47:14;12.70;99.90
18932;DHT22;9598;50.954;3.112;2023-03-16T21:52:25;12.70;99.90
18932;DHT22;9598;50.954;3.112;2023-03-16T21:57:27;12.60;99.90
18932;DHT22;9598;50.954;3.112;2023-03-16T22:02:29;12.60;99.90
18932;DHT22;9598;50.954;3.112;2023-03-16T22:07:35;12.60;99.90
18932;DHT22;9598;50.954;3.112;2023-03-16T22:12:37;12.60;99.90
18932;DHT22;9598;50.954;3.112;2023-03-16T22:17:39;12.60;99.90
18932;DHT22;9598;50.954;3.112;2023-03-16T22:22:43;12.50;99.90
18932;DHT22;9598;50.954;3.112;2023-03-16T22:27:45;12.50;99.90
18932;DHT22;9598;50.954;3.112;2023-03-16T22:32:50;12.50;99.90
18932;DHT22;9598;50.954;3.112;2023-03-16T22:37:55;12.40;99.90
18932;DHT22;9598;50.954;3.112;2023-03-16T22:43:01;12.40;99.90
18932;DHT22;9598;50.954;3.112;2023-03-16T22:48:14;12.40;99.90
18932;DHT22;9598;50.954;3.112;2023-03-16T22:53:35;12.40;99.90
18932;DHT22;9598;50.954;3.112;2023-03-16T22:58:41;12.30;99.90
18932;DHT22;9598;50.954;3.112;2023-03-16T23:03:45;12.30;99.90
18932;DHT22;9598;50.954;3.112;2023-03-16T23:08:50;12.30;99.90
18932;DHT22;9598;50.954;3.112;2023-03-16T23:13:54;12.20;99.90
18932;DHT22;9598;50.954;3.112;2023-03-16T23:18:56;12.20;99.90
18932;DHT22;9598;50.954;3.112;2023-03-16T23:24:00;12.10;99.90
18932;DHT22;9598;50.954;3.112;2023-03-16T23:29:02;12.10;99.90
18932;DHT22;9598;50.954;3.112;2023-03-16T23:34:09;12.00;99.90
18932;DHT22;9598;50.954;3.112;2023-03-16T23:39:13;11.90;99.90
18932;DHT22;9598;50.954;3.112;2023-03-16T23:44:16;11.90;99.90
18932;DHT22;9598;50.954;3.112;2023-03-16T23:49:21;11.90;99.90
18932;DHT22;9598;50.954;3.112;2023-03-16T23:54:27;11.90;99.90
18932;DHT22;9598;50.954;3.112;2023-03-16T23:59:30;11.80;99.90
